Time,TemperatureF,DewpointF,PressureIn,WindDirection,WindDirectionDegrees,WindSpeedMPH,WindSpeedGustMPH,Humidity,HourlyPrecipIn,Conditions,Clouds,dailyrainin,SoftwareType,DateUTC
2013-06-26 00:00:00,67.8,63.8,30.11,SE,139,0.0,5.0,87,0.00,,,0.00,Wunderground v.1.15,2013-06-26 04:00:00,
2013-06-26 00:05:00,67.9,64.2,30.10,SE,139,0.0,5.0,88,0.00,,,0.00,Wunderground v.1.15,2013-06-26 04:05:00,
2013-06-26 00:10:00,67.9,63.9,30.10,SE,139,0.0,5.0,87,0.00,,,0.00,Wunderground v.1.15,2013-06-26 04:10:00,
2013-06-26 00:15:00,67.9,63.9,30.11,SE,139,0.0,5.0,87,0.00,,,0.00,Wunderground v.1.15,2013-06-26 04:15:00,
2013-06-26 00:20:00,68.0,64.0,30.11,SE,139,0.0,5.0,87,0.00,,,0.00,Wunderground v.1.15,2013-06-26 04:20:00,
2013-06-26 00:25:00,68.0,64.0,30.10,SE,139,0.0,5.0,87,0.00,,,0.00,Wunderground v.1.15,2013-06-26 04:25:00,
2013-06-26 00:35:00,68.2,64.2,30.10,SE,139,0.0,5.0,87,0.00,,,0.00,Wunderground v.1.15,2013-06-26 04:35:00,
2013-06-26 00:40:00,68.1,64.4,30.10,SE,139,0.0,5.0,88,0.00,,,0.00,Wunderground v.1.15,2013-06-26 04:40:00,
2013-06-26 00:45:00,68.0,64.3,30.10,SE,139,0.0,5.0,88,0.00,,,0.00,Wunderground v.1.15,2013-06-26 04:45:00,
2013-06-26 00:50:00,67.9,64.5,30.09,SE,139,0.0,5.0,89,0.00,,,0.00,Wunderground v.1.15,2013-06-26 04:50:00,
2013-06-26 00:55:00,68.0,65.0,30.09,SE,139,0.0,5.0,90,0.00,,,0.00,Wunderground v.1.15,2013-06-26 04:55:00,
2013-06-26 01:01:00,67.8,64.4,30.09,SE,139,0.0,5.0,89,0.00,,,0.00,Wunderground v.1.15,2013-06-26 05:01:00,
2013-06-26 01:10:00,67.0,64.0,30.09,SE,139,0.0,5.0,90,0.00,,,0.00,Wunderground v.1.15,2013-06-26 05:10:00,
2013-06-26 01:15:00,66.7,64.0,30.09,SE,139,0.0,5.0,91,0.00,,,0.00,Wunderground v.1.15,2013-06-26 05:15:00,
2013-06-26 01:20:00,66.4,64.0,30.09,SE,139,0.0,5.0,92,0.00,,,0.00,Wunderground v.1.15,2013-06-26 05:20:00,
2013-06-26 01:25:00,66.1,63.7,30.08,SE,139,0.0,5.0,92,0.00,,,0.00,Wunderground v.1.15,2013-06-26 05:25:00,
2013-06-26 01:30:00,65.9,63.8,30.08,SE,139,0.0,5.0,93,0.00,,,0.00,Wunderground v.1.15,2013-06-26 05:30:00,
2013-06-26 01:40:00,65.7,63.9,30.08,SE,139,0.0,5.0,94,0.00,,,0.00,Wunderground v.1.15,2013-06-26 05:40:00,
2013-06-26 01:45:00,65.7,63.9,30.08,SE,139,0.0,5.0,94,0.00,,,0.00,Wunderground v.1.15,2013-06-26 05:45:00,
2013-06-26 01:50:00,65.6,64.1,30.08,SE,139,0.0,5.0,95,0.00,,,0.00,Wunderground v.1.15,2013-06-26 05:50:00,
2013-06-26 01:55:00,65.5,64.0,30.08,SE,139,0.0,5.0,95,0.00,,,0.00,Wunderground v.1.15,2013-06-26 05:55:00,
2013-06-26 02:05:00,65.6,63.8,30.08,SE,139,0.0,5.0,94,0.00,,,0.00,Wunderground v.1.15,2013-06-26 06:05:00,
2013-06-26 02:10:00,65.7,63.9,30.07,SE,139,0.0,5.0,94,0.00,,,0.00,Wunderground v.1.15,2013-06-26 06:10:00,
2013-06-26 02:15:00,65.8,64.0,30.07,SE,139,0.0,5.0,94,0.00,,,0.00,Wunderground v.1.15,2013-06-26 06:15:00,
2013-06-26 02:20:00,65.9,64.1,30.07,SE,139,0.0,5.0,94,0.00,,,0.00,Wunderground v.1.15,2013-06-26 06:20:00,
2013-06-26 02:25:00,65.9,63.8,30.07,SE,139,0.0,5.0,93,0.00,,,0.00,Wunderground v.1.15,2013-06-26 06:25:00,
2013-06-26 02:30:00,65.8,63.7,30.07,SE,139,0.0,5.0,93,0.00,,,0.00,Wunderground v.1.15,2013-06-26 06:30:00,
2013-06-26 02:40:00,65.9,64.1,30.06,SE,139,0.0,5.0,94,0.00,,,0.00,Wunderground v.1.15,2013-06-26 06:40:00,
2013-06-26 02:45:00,65.9,64.1,30.06,SE,139,0.0,5.0,94,0.00,,,0.00,Wunderground v.1.15,2013-06-26 06:45:00,
2013-06-26 02:50:00,65.8,63.7,30.06,SE,139,0.0,5.0,93,0.00,,,0.00,Wunderground v.1.15,2013-06-26 06:50:00,
2013-06-26 02:55:00,65.8,63.7,30.06,SE,139,0.0,5.0,93,0.00,,,0.00,Wunderground v.1.15,2013-06-26 06:55:00,
2013-06-26 03:01:00,65.9,63.8,30.06,SE,139,0.0,5.0,93,0.00,,,0.00,Wunderground v.1.15,2013-06-26 07:01:00,
2013-06-26 03:05:00,65.9,63.8,30.05,SE,139,0.0,5.0,93,0.00,,,0.00,Wunderground v.1.15,2013-06-26 07:05:00,
2013-06-26 03:10:00,65.9,63.8,30.05,SE,139,0.0,5.0,93,0.00,,,0.00,Wunderground v.1.15,2013-06-26 07:10:00,
2013-06-26 03:15:00,65.8,63.7,30.05,SE,139,0.0,5.0,93,0.00,,,0.00,Wunderground v.1.15,2013-06-26 07:15:00,
2013-06-26 03:20:00,65.7,63.6,30.06,SE,139,0.0,5.0,93,0.00,,,0.00,Wunderground v.1.15,2013-06-26 07:20:00,
2013-06-26 03:25:00,65.6,63.8,30.06,SE,139,0.0,5.0,94,0.00,,,0.00,Wunderground v.1.15,2013-06-26 07:25:00,
2013-06-26 03:30:00,65.4,63.6,30.05,SE,139,0.0,5.0,94,0.00,,,0.00,Wunderground v.1.15,2013-06-26 07:30:00,
2013-06-26 03:35:00,65.4,63.9,30.05,SE,139,0.0,5.0,95,0.00,,,0.00,Wunderground v.1.15,2013-06-26 07:35:00,
2013-06-26 03:40:00,65.5,64.0,30.05,SE,139,0.0,5.0,95,0.00,,,0.00,Wunderground v.1.15,2013-06-26 07:40:00,
2013-06-26 03:45:00,65.6,64.1,30.05,SE,139,0.0,5.0,95,0.00,,,0.00,Wunderground v.1.15,2013-06-26 07:45:00,
2013-06-26 03:50:00,65.7,64.2,30.05,SE,139,0.0,5.0,95,0.00,,,0.00,Wunderground v.1.15,2013-06-26 07:50:00,
2013-06-26 03:55:00,65.7,64.2,30.05,SE,139,0.0,5.0,95,0.00,,,0.00,Wunderground v.1.15,2013-06-26 07:55:00,
2013-06-26 04:00:00,65.7,64.2,30.06,SE,139,0.0,5.0,95,0.00,,,0.00,Wunderground v.1.15,2013-06-26 08:00:00,
2013-06-26 04:10:00,65.7,64.2,30.05,SE,139,0.0,5.0,95,0.00,,,0.00,Wunderground v.1.15,2013-06-26 08:10:00,
2013-06-26 04:15:00,65.6,64.1,30.05,SE,139,0.0,5.0,95,0.00,,,0.00,Wunderground v.1.15,2013-06-26 08:15:00,
2013-06-26 04:20:00,65.6,64.1,30.05,SE,139,0.0,5.0,95,0.00,,,0.00,Wunderground v.1.15,2013-06-26 08:20:00,
2013-06-26 04:25:00,65.5,64.0,30.05,SE,139,0.0,5.0,95,0.00,,,0.00,Wunderground v.1.15,2013-06-26 08:25:00,
2013-06-26 04:30:00,65.6,64.4,30.06,SE,139,0.0,5.0,96,0.00,,,0.00,Wunderground v.1.15,2013-06-26 08:30:00,
2013-06-26 04:35:00,65.5,64.0,30.06,SE,139,0.0,5.0,95,0.00,,,0.00,Wunderground v.1.15,2013-06-26 08:35:00,
2013-06-26 04:40:00,65.5,64.0,30.06,SE,139,0.0,5.0,95,0.00,,,0.00,Wunderground v.1.15,2013-06-26 08:40:00,
2013-06-26 04:45:00,65.6,64.1,30.06,SE,139,0.0,5.0,95,0.00,,,0.00,Wunderground v.1.15,2013-06-26 08:45:00,
2013-06-26 04:50:00,65.5,64.0,30.06,SE,139,0.0,5.0,95,0.00,,,0.00,Wunderground v.1.15,2013-06-26 08:50:00,
2013-06-26 04:55:00,65.4,63.9,30.06,SE,139,0.0,5.0,95,0.00,,,0.00,Wunderground v.1.15,2013-06-26 08:55:00,
2013-06-26 05:00:00,65.2,63.7,30.06,SE,139,0.0,5.0,95,0.00,,,0.00,Wunderground v.1.15,2013-06-26 09:00:00,
2013-06-26 05:05:00,65.1,63.6,30.06,SE,139,0.0,5.0,95,0.00,,,0.00,Wunderground v.1.15,2013-06-26 09:05:00,
2013-06-26 05:10:00,64.9,63.4,30.07,SE,139,0.0,5.0,95,0.00,,,0.00,Wunderground v.1.15,2013-06-26 09:10:00,
2013-06-26 05:15:00,64.7,63.2,30.07,SE,139,0.0,5.0,95,0.00,,,0.00,Wunderground v.1.15,2013-06-26 09:15:00,
2013-06-26 05:20:00,64.5,63.0,30.07,SE,139,0.0,5.0,95,0.00,,,0.00,Wunderground v.1.15,2013-06-26 09:20:00,
2013-06-26 05:25:00,64.3,62.8,30.07,SE,139,0.0,5.0,95,0.00,,,0.00,Wunderground v.1.15,2013-06-26 09:25:00,
2013-06-26 05:30:00,64.2,63.0,30.07,SE,139,0.0,5.0,96,0.00,,,0.00,Wunderground v.1.15,2013-06-26 09:30:00,
2013-06-26 05:35:00,64.2,63.0,30.08,SE,139,0.0,5.0,96,0.00,,,0.00,Wunderground v.1.15,2013-06-26 09:35:00,
2013-06-26 05:45:00,64.3,63.1,30.08,SE,139,0.0,5.0,96,0.00,,,0.00,Wunderground v.1.15,2013-06-26 09:45:00,
2013-06-26 05:50:00,64.3,63.1,30.08,SE,139,0.0,5.0,96,0.00,,,0.00,Wunderground v.1.15,2013-06-26 09:50:00,
2013-06-26 05:55:00,64.3,63.1,30.08,SE,139,0.0,5.0,96,0.00,,,0.00,Wunderground v.1.15,2013-06-26 09:55:00,
2013-06-26 06:01:00,64.2,62.7,30.08,SE,139,0.0,5.0,95,0.00,,,0.00,Wunderground v.1.15,2013-06-26 10:01:00,
2013-06-26 06:05:00,64.1,62.9,30.09,SE,139,0.0,5.0,96,0.00,,,0.00,Wunderground v.1.15,2013-06-26 10:05:00,
2013-06-26 06:10:00,64.0,62.8,30.09,SE,139,0.0,5.0,96,0.00,,,0.00,Wunderground v.1.15,2013-06-26 10:10:00,
2013-06-26 06:15:00,63.7,62.2,30.09,SE,139,0.0,5.0,95,0.00,,,0.00,Wunderground v.1.15,2013-06-26 10:15:00,
2013-06-26 06:20:00,63.3,61.8,30.09,SE,139,0.0,5.0,95,0.00,,,0.00,Wunderground v.1.15,2013-06-26 10:20:00,
2013-06-26 06:25:00,63.1,61.9,30.10,SE,139,0.0,5.0,96,0.00,,,0.00,Wunderground v.1.15,2013-06-26 10:25:00,
2013-06-26 06:30:00,63.2,62.3,30.10,SE,139,0.0,5.0,97,0.00,,,0.00,Wunderground v.1.15,2013-06-26 10:30:00,
2013-06-26 06:35:00,63.6,62.7,30.10,SE,139,0.0,5.0,97,0.00,,,0.00,Wunderground v.1.15,2013-06-26 10:35:00,
2013-06-26 06:40:00,63.8,62.9,30.10,SE,139,0.0,5.0,97,0.00,,,0.00,Wunderground v.1.15,2013-06-26 10:40:00,
2013-06-26 06:45:00,64.1,63.2,30.10,SE,139,0.0,5.0,97,0.00,,,0.00,Wunderground v.1.15,2013-06-26 10:45:00,
2013-06-26 06:50:00,64.2,63.0,30.10,SE,139,0.0,5.0,96,0.00,,,0.00,Wunderground v.1.15,2013-06-26 10:50:00,
2013-06-26 06:55:00,64.2,63.0,30.10,SE,139,0.0,5.0,96,0.00,,,0.00,Wunderground v.1.15,2013-06-26 10:55:00,
2013-06-26 07:01:00,64.0,62.8,30.10,SE,139,0.0,5.0,96,0.00,,,0.00,Wunderground v.1.15,2013-06-26 11:01:00,
2013-06-26 07:05:00,64.0,62.8,30.10,SE,139,0.0,5.0,96,0.00,,,0.00,Wunderground v.1.15,2013-06-26 11:05:00,
2013-06-26 07:10:00,64.0,62.8,30.10,SE,139,0.0,5.0,96,0.00,,,0.00,Wunderground v.1.15,2013-06-26 11:10:00,
2013-06-26 07:15:00,64.0,62.8,30.11,SE,139,0.0,5.0,96,0.00,,,0.00,Wunderground v.1.15,2013-06-26 11:15:00,
2013-06-26 07:20:00,64.0,62.8,30.11,SE,139,0.0,5.0,96,0.00,,,0.00,Wunderground v.1.15,2013-06-26 11:20:00,
2013-06-26 07:25:00,64.0,63.1,30.11,SE,139,0.0,5.0,97,0.00,,,0.00,Wunderground v.1.15,2013-06-26 11:25:00,
2013-06-26 07:30:00,64.1,63.2,30.11,SE,139,0.0,5.0,97,0.00,,,0.00,Wunderground v.1.15,2013-06-26 11:30:00,
2013-06-26 07:35:00,64.3,63.4,30.11,SE,139,0.0,5.0,97,0.00,,,0.00,Wunderground v.1.15,2013-06-26 11:35:00,
2013-06-26 07:40:00,64.4,63.5,30.11,SE,139,0.0,5.0,97,0.00,,,0.00,Wunderground v.1.15,2013-06-26 11:40:00,
2013-06-26 07:45:00,64.6,63.7,30.11,SE,139,0.0,5.0,97,0.00,,,0.00,Wunderground v.1.15,2013-06-26 11:45:00,
2013-06-26 07:50:00,64.9,64.0,30.11,SE,139,0.0,5.0,97,0.00,,,0.00,Wunderground v.1.15,2013-06-26 11:50:00,
2013-06-26 07:55:00,65.0,63.8,30.11,SE,139,0.0,5.0,96,0.00,,,0.00,Wunderground v.1.15,2013-06-26 11:55:00,
2013-06-26 08:01:00,65.1,63.9,30.11,SE,139,0.0,5.0,96,0.00,,,0.00,Wunderground v.1.15,2013-06-26 12:01:00,
2013-06-26 08:05:00,65.1,63.9,30.11,SE,139,0.0,5.0,96,0.00,,,0.00,Wunderground v.1.15,2013-06-26 12:05:00,
2013-06-26 08:10:00,65.2,64.0,30.11,SE,139,0.0,5.0,96,0.00,,,0.00,Wunderground v.1.15,2013-06-26 12:10:00,
2013-06-26 08:15:00,65.2,64.0,30.11,SE,139,0.0,5.0,96,0.00,,,0.00,Wunderground v.1.15,2013-06-26 12:15:00,
2013-06-26 08:25:00,65.5,64.0,30.11,SE,139,0.0,5.0,95,0.00,,,0.00,Wunderground v.1.15,2013-06-26 12:25:00,
2013-06-26 08:30:00,65.7,64.2,30.11,SE,139,0.0,5.0,95,0.00,,,0.00,Wunderground v.1.15,2013-06-26 12:30:00,
2013-06-26 08:40:00,66.0,64.5,30.11,SE,139,0.0,5.0,95,0.00,,,0.00,Wunderground v.1.15,2013-06-26 12:40:00,
2013-06-26 08:45:00,66.2,64.7,30.11,SE,139,0.0,5.0,95,0.00,,,0.00,Wunderground v.1.15,2013-06-26 12:45:00,
2013-06-26 08:50:00,66.4,64.6,30.11,SE,139,0.0,5.0,94,0.00,,,0.00,Wunderground v.1.15,2013-06-26 12:50:00,
2013-06-26 08:55:00,66.7,64.9,30.11,SE,139,0.0,5.0,94,0.00,,,0.00,Wunderground v.1.15,2013-06-26 12:55:00,
2013-06-26 09:05:00,67.5,65.4,30.11,SE,139,0.0,5.0,93,0.00,,,0.00,Wunderground v.1.15,2013-06-26 13:05:00,
2013-06-26 09:10:00,67.8,65.4,30.11,SE,139,0.0,5.0,92,0.00,,,0.00,Wunderground v.1.15,2013-06-26 13:10:00,
2013-06-26 09:15:00,68.2,65.5,30.11,SE,139,0.0,5.0,91,0.00,,,0.00,Wunderground v.1.15,2013-06-26 13:15:00,
2013-06-26 09:20:00,68.5,65.8,30.10,SE,139,0.0,5.0,91,0.00,,,0.00,Wunderground v.1.15,2013-06-26 13:20:00,
2013-06-26 09:25:00,68.8,66.1,30.11,WSW,252,0.0,5.0,91,0.00,,,0.00,Wunderground v.1.15,2013-06-26 13:25:00,
2013-06-26 09:30:00,69.1,66.0,30.10,WSW,252,0.0,5.0,90,0.00,,,0.00,Wunderground v.1.15,2013-06-26 13:30:00,
2013-06-26 09:35:00,69.3,65.9,30.10,North,5,0.0,5.0,89,0.00,,,0.00,Wunderground v.1.15,2013-06-26 13:35:00,
2013-06-26 09:40:00,69.6,66.2,30.10,NE,37,0.0,5.0,89,0.00,,,0.00,Wunderground v.1.15,2013-06-26 13:40:00,
2013-06-26 09:45:00,70.0,66.6,30.10,West,272,0.0,5.0,89,0.00,,,0.00,Wunderground v.1.15,2013-06-26 13:45:00,
2013-06-26 09:50:00,70.3,66.9,30.10,West,272,0.0,5.0,89,0.00,,,0.00,Wunderground v.1.15,2013-06-26 13:50:00,
2013-06-26 09:55:00,70.6,66.9,30.10,West,272,0.0,5.0,88,0.00,,,0.00,Wunderground v.1.15,2013-06-26 13:55:00,
2013-06-26 10:01:00,71.1,67.0,30.10,West,272,0.0,5.0,87,0.00,,,0.00,Wunderground v.1.15,2013-06-26 14:01:00,
2013-06-26 10:05:00,71.6,67.2,30.09,West,277,0.0,5.0,86,0.00,,,0.00,Wunderground v.1.15,2013-06-26 14:05:00,
2013-06-26 10:10:00,72.1,67.3,30.09,ENE,66,0.0,5.0,85,0.00,,,0.00,Wunderground v.1.15,2013-06-26 14:10:00,
2013-06-26 10:15:00,72.7,67.2,30.09,ENE,67,0.0,5.0,83,0.00,,,0.00,Wunderground v.1.15,2013-06-26 14:15:00,
2013-06-26 10:20:00,73.3,67.5,30.09,ENE,67,0.0,5.0,82,0.00,,,0.00,Wunderground v.1.15,2013-06-26 14:20:00,
2013-06-26 10:25:00,73.9,67.7,30.09,ENE,67,0.0,5.0,81,0.00,,,0.00,Wunderground v.1.15,2013-06-26 14:25:00,
2013-06-26 10:30:00,74.7,68.1,30.08,ENE,67,0.0,5.0,80,0.00,,,0.00,Wunderground v.1.15,2013-06-26 14:30:00,
2013-06-26 10:35:00,75.3,68.3,30.08,ENE,67,0.0,5.0,79,0.00,,,0.00,Wunderground v.1.15,2013-06-26 14:35:00,
2013-06-26 10:40:00,75.8,68.1,30.08,ENE,67,0.0,5.0,77,0.00,,,0.00,Wunderground v.1.15,2013-06-26 14:40:00,
2013-06-26 10:45:00,76.4,69.0,30.09,ENE,59,1.0,5.0,78,0.00,,,0.00,Wunderground v.1.15,2013-06-26 14:45:00,
2013-06-26 10:55:00,76.9,69.1,30.09,ENE,59,0.0,5.0,77,0.00,,,0.00,Wunderground v.1.15,2013-06-26 14:55:00,
2013-06-26 11:05:00,77.5,69.3,30.09,ENE,59,0.0,5.0,76,0.00,,,0.00,Wunderground v.1.15,2013-06-26 15:05:00,
2013-06-26 11:10:00,77.6,69.8,30.09,ENE,59,0.0,5.0,77,0.00,,,0.00,Wunderground v.1.15,2013-06-26 15:10:00,
2013-06-26 11:15:00,77.8,70.0,30.09,ENE,59,0.0,5.0,77,0.00,,,0.00,Wunderground v.1.15,2013-06-26 15:15:00,
2013-06-26 11:20:00,77.7,69.9,30.08,ENE,59,0.0,5.0,77,0.00,,,0.00,Wunderground v.1.15,2013-06-26 15:20:00,
2013-06-26 11:25:00,77.2,69.4,30.09,ENE,59,0.0,5.0,77,0.00,,,0.00,Wunderground v.1.15,2013-06-26 15:25:00,
2013-06-26 11:30:00,77.1,69.7,30.09,ENE,59,0.0,5.0,78,0.00,,,0.00,Wunderground v.1.15,2013-06-26 15:30:00,
2013-06-26 11:35:00,77.0,69.6,30.08,ENE,59,0.0,5.0,78,0.00,,,0.00,Wunderground v.1.15,2013-06-26 15:35:00,
2013-06-26 11:40:00,77.2,70.5,30.08,ENE,57,0.0,5.0,80,0.00,,,0.00,Wunderground v.1.15,2013-06-26 15:40:00,
2013-06-26 11:45:00,77.8,70.0,30.08,ENE,57,0.0,5.0,77,0.00,,,0.00,Wunderground v.1.15,2013-06-26 15:45:00,
2013-06-26 11:50:00,78.4,70.2,30.08,ENE,57,0.0,5.0,76,0.00,,,0.00,Wunderground v.1.15,2013-06-26 15:50:00,
2013-06-26 11:55:00,79.0,70.0,30.08,ENE,57,0.0,5.0,74,0.00,,,0.00,Wunderground v.1.15,2013-06-26 15:55:00,
2013-06-26 12:01:00,79.3,69.9,30.08,SSE,155,0.0,5.0,73,0.00,,,0.00,Wunderground v.1.15,2013-06-26 16:01:00,
2013-06-26 12:05:00,79.6,70.2,30.08,SSE,150,1.0,5.0,73,0.00,,,0.00,Wunderground v.1.15,2013-06-26 16:05:00,
2013-06-26 12:15:00,79.2,70.6,30.08,SSE,150,0.0,5.0,75,0.00,,,0.00,Wunderground v.1.15,2013-06-26 16:15:00,
2013-06-26 12:20:00,79.2,70.2,30.08,SSE,153,0.0,5.0,74,0.00,,,0.00,Wunderground v.1.15,2013-06-26 16:20:00,
2013-06-26 12:30:00,78.4,70.2,30.08,SSE,153,0.0,5.0,76,0.00,,,0.00,Wunderground v.1.15,2013-06-26 16:30:00,
2013-06-26 12:35:00,76.9,70.6,30.08,SSE,154,0.0,5.0,81,0.30,,,0.05,Wunderground v.1.15,2013-06-26 16:35:00,
2013-06-26 12:40:00,75.2,70.0,30.08,SSE,154,0.0,5.0,84,0.08,,,0.05,Wunderground v.1.15,2013-06-26 16:40:00,
2013-06-26 12:45:00,74.0,69.9,30.08,SSE,154,0.0,5.0,87,0.05,,,0.05,Wunderground v.1.15,2013-06-26 16:45:00,
2013-06-26 12:50:00,73.0,68.9,30.08,SSE,154,0.0,5.0,87,0.00,,,0.05,Wunderground v.1.15,2013-06-26 16:50:00,
2013-06-26 12:55:00,72.2,69.1,30.08,SSE,154,0.0,5.0,90,0.00,,,0.05,Wunderground v.1.15,2013-06-26 16:55:00,
2013-06-26 13:01:00,71.8,69.0,30.08,SSE,154,0.0,5.0,91,0.00,,,0.05,Wunderground v.1.15,2013-06-26 17:01:00,
2013-06-26 13:05:00,71.7,69.3,30.07,SSE,154,0.0,5.0,92,0.00,,,0.05,Wunderground v.1.15,2013-06-26 17:05:00,
2013-06-26 13:10:00,72.4,70.9,30.08,SSE,154,0.0,5.0,95,0.00,,,0.05,Wunderground v.1.15,2013-06-26 17:10:00,
2013-06-26 13:15:00,72.9,69.8,30.08,SSE,154,1.0,5.0,90,0.00,,,0.05,Wunderground v.1.15,2013-06-26 17:15:00,
2013-06-26 13:20:00,73.8,70.7,30.07,SSE,154,0.0,5.0,90,0.00,,,0.05,Wunderground v.1.15,2013-06-26 17:20:00,
2013-06-26 13:25:00,74.9,71.4,30.08,SSE,154,0.0,5.0,89,0.00,,,0.05,Wunderground v.1.15,2013-06-26 17:25:00,
2013-06-26 13:30:00,75.3,71.2,30.07,SSE,154,0.0,5.0,87,0.00,,,0.05,Wunderground v.1.15,2013-06-26 17:30:00,
2013-06-26 13:40:00,76.2,68.5,30.07,ESE,119,0.0,5.0,77,0.00,,,0.05,Wunderground v.1.15,2013-06-26 17:40:00,
2013-06-26 13:45:00,77.1,70.1,30.06,ESE,119,0.0,5.0,79,0.00,,,0.05,Wunderground v.1.15,2013-06-26 17:45:00,
2013-06-26 13:50:00,78.2,70.8,30.06,ESE,119,0.0,5.0,78,0.00,,,0.05,Wunderground v.1.15,2013-06-26 17:50:00,
2013-06-26 13:55:00,78.3,71.6,30.06,ESE,119,0.0,5.0,80,0.00,,,0.05,Wunderground v.1.15,2013-06-26 17:55:00,
2013-06-26 14:01:00,77.9,71.6,30.05,ESE,119,0.0,5.0,81,0.00,,,0.05,Wunderground v.1.15,2013-06-26 18:01:00,
2013-06-26 14:05:00,77.4,70.7,30.05,ESE,119,0.0,5.0,80,0.00,,,0.05,Wunderground v.1.15,2013-06-26 18:05:00,
2013-06-26 14:10:00,77.3,71.4,30.04,ESE,119,0.0,5.0,82,0.00,,,0.05,Wunderground v.1.15,2013-06-26 18:10:00,
2013-06-26 14:20:00,78.3,68.5,30.05,NNW,327,0.0,5.0,72,0.00,,,0.05,Wunderground v.1.15,2013-06-26 18:20:00,
2013-06-26 14:25:00,79.0,69.6,30.05,ESE,111,0.0,5.0,73,0.00,,,0.05,Wunderground v.1.15,2013-06-26 18:25:00,
2013-06-26 14:30:00,80.1,71.1,30.05,ESE,111,0.0,5.0,74,0.00,,,0.05,Wunderground v.1.15,2013-06-26 18:30:00,
2013-06-26 14:35:00,80.7,68.7,30.04,West,261,1.0,1.0,67,0.00,,,0.05,Wunderground v.1.15,2013-06-26 18:35:00,
2013-06-26 14:40:00,81.5,69.0,30.04,SW,234,1.0,5.0,66,0.00,,,0.05,Wunderground v.1.15,2013-06-26 18:40:00,
2013-06-26 14:45:00,81.9,69.9,30.04,ENE,67,0.0,5.0,67,0.00,,,0.05,Wunderground v.1.15,2013-06-26 18:45:00,
2013-06-26 14:50:00,82.2,71.4,30.04,ESE,122,0.0,5.0,70,0.00,,,0.05,Wunderground v.1.15,2013-06-26 18:50:00,
2013-06-26 14:55:00,82.5,70.4,30.03,ESE,106,0.0,5.0,67,0.00,,,0.05,Wunderground v.1.15,2013-06-26 18:55:00,
2013-06-26 15:00:00,82.5,70.9,30.03,ESE,106,0.0,5.0,68,0.00,,,0.05,Wunderground v.1.15,2013-06-26 19:00:00,
2013-06-26 15:05:00,82.5,68.2,30.03,ESE,106,0.0,5.0,62,0.00,,,0.05,Wunderground v.1.15,2013-06-26 19:05:00,
2013-06-26 15:10:00,82.6,70.1,30.03,ESE,106,0.0,5.0,66,0.00,,,0.05,Wunderground v.1.15,2013-06-26 19:10:00,
2013-06-26 15:15:00,82.3,71.1,30.02,ESE,106,0.0,5.0,69,0.00,,,0.05,Wunderground v.1.15,2013-06-26 19:15:00,
2013-06-26 15:20:00,82.1,72.2,30.02,ESE,106,0.0,5.0,72,0.00,,,0.05,Wunderground v.1.15,2013-06-26 19:20:00,
2013-06-26 15:25:00,81.9,72.4,30.02,ESE,115,0.0,5.0,73,0.00,,,0.05,Wunderground v.1.15,2013-06-26 19:25:00,
2013-06-26 15:30:00,81.6,71.7,30.02,ESE,115,0.0,5.0,72,0.00,,,0.05,Wunderground v.1.15,2013-06-26 19:30:00,
2013-06-26 15:35:00,81.0,71.9,30.02,ESE,115,0.0,5.0,74,0.00,,,0.05,Wunderground v.1.15,2013-06-26 19:35:00,
2013-06-26 15:45:00,80.2,71.9,30.01,South,184,0.0,5.0,76,0.00,,,0.05,Wunderground v.1.15,2013-06-26 19:45:00,
2013-06-26 15:50:00,79.8,71.2,30.01,South,184,0.0,5.0,75,0.00,,,0.05,Wunderground v.1.15,2013-06-26 19:50:00,
2013-06-26 15:55:00,79.8,70.4,30.01,South,169,0.0,5.0,73,0.00,,,0.05,Wunderground v.1.15,2013-06-26 19:55:00,
2013-06-26 16:01:00,79.8,71.9,30.01,South,169,0.0,5.0,77,0.00,,,0.05,Wunderground v.1.15,2013-06-26 20:01:00,
2013-06-26 16:05:00,79.9,70.5,30.01,South,169,0.0,5.0,73,0.00,,,0.05,Wunderground v.1.15,2013-06-26 20:05:00,
2013-06-26 16:10:00,80.2,71.6,30.00,South,169,0.0,5.0,75,0.00,,,0.05,Wunderground v.1.15,2013-06-26 20:10:00,
2013-06-26 16:15:00,80.2,71.9,30.00,South,169,0.0,5.0,76,0.00,,,0.05,Wunderground v.1.15,2013-06-26 20:15:00,
2013-06-26 16:20:00,80.0,71.8,30.00,South,169,0.0,5.0,76,0.00,,,0.05,Wunderground v.1.15,2013-06-26 20:20:00,
2013-06-26 16:25:00,79.4,71.2,30.00,SW,219,0.0,5.0,76,0.00,,,0.05,Wunderground v.1.15,2013-06-26 20:25:00,
2013-06-26 16:30:00,78.9,70.7,30.01,ENE,74,0.0,5.0,76,0.00,,,0.05,Wunderground v.1.15,2013-06-26 20:30:00,
2013-06-26 16:35:00,78.2,71.2,30.01,East,95,1.0,5.0,79,0.29,,,0.07,Wunderground v.1.15,2013-06-26 20:35:00,
2013-06-26 16:40:00,77.2,70.9,30.02,East,95,0.0,5.0,81,0.08,,,0.07,Wunderground v.1.15,2013-06-26 20:40:00,
2013-06-26 16:45:00,76.2,71.0,30.01,East,95,0.0,5.0,84,0.05,,,0.07,Wunderground v.1.15,2013-06-26 20:45:00,
2013-06-26 16:50:00,75.1,70.3,30.01,East,95,0.0,5.0,85,0.00,,,0.07,Wunderground v.1.15,2013-06-26 20:50:00,
2013-06-26 16:55:00,74.1,69.3,30.01,East,95,0.0,5.0,85,0.00,,,0.07,Wunderground v.1.15,2013-06-26 20:55:00,
2013-06-26 17:01:00,73.2,69.1,30.00,East,95,0.0,5.0,87,0.00,,,0.07,Wunderground v.1.15,2013-06-26 21:01:00,
2013-06-26 17:05:00,72.6,68.8,29.99,East,95,0.0,5.0,88,0.00,,,0.07,Wunderground v.1.15,2013-06-26 21:05:00,
2013-06-26 17:10:00,72.2,68.4,29.99,East,95,0.0,5.0,88,0.00,,,0.07,Wunderground v.1.15,2013-06-26 21:10:00,
2013-06-26 17:15:00,71.9,67.8,29.99,East,95,0.0,5.0,87,0.00,,,0.07,Wunderground v.1.15,2013-06-26 21:15:00,
2013-06-26 17:20:00,71.9,68.2,29.99,East,95,0.0,5.0,88,0.00,,,0.07,Wunderground v.1.15,2013-06-26 21:20:00,
2013-06-26 17:25:00,71.7,68.0,29.99,East,95,0.0,5.0,88,0.00,,,0.07,Wunderground v.1.15,2013-06-26 21:25:00,
2013-06-26 17:30:00,71.5,68.1,29.99,East,95,0.0,5.0,89,0.00,,,0.07,Wunderground v.1.15,2013-06-26 21:30:00,
2013-06-26 17:35:00,71.5,68.4,30.00,East,95,0.0,5.0,90,0.00,,,0.07,Wunderground v.1.15,2013-06-26 21:35:00,
2013-06-26 17:40:00,71.6,68.5,30.00,East,95,0.0,5.0,90,0.00,,,0.07,Wunderground v.1.15,2013-06-26 21:40:00,
2013-06-26 17:45:00,71.8,67.4,30.00,North,360,0.0,5.0,86,0.00,,,0.07,Wunderground v.1.15,2013-06-26 21:45:00,
2013-06-26 17:50:00,72.1,67.3,30.00,North,10,1.0,5.0,85,0.00,,,0.07,Wunderground v.1.15,2013-06-26 21:50:00,
2013-06-26 17:55:00,72.3,67.9,30.00,North,10,0.0,5.0,86,0.00,,,0.07,Wunderground v.1.15,2013-06-26 21:55:00,
2013-06-26 18:01:00,72.7,68.6,30.00,North,10,0.0,5.0,87,0.00,,,0.07,Wunderground v.1.15,2013-06-26 22:01:00,
2013-06-26 18:05:00,73.1,69.7,29.99,North,10,0.0,5.0,89,0.00,,,0.07,Wunderground v.1.15,2013-06-26 22:05:00,
2013-06-26 18:10:00,73.4,69.6,29.99,North,10,0.0,5.0,88,0.00,,,0.07,Wunderground v.1.15,2013-06-26 22:10:00,
2013-06-26 18:15:00,73.6,69.8,29.99,North,10,0.0,5.0,88,0.00,,,0.07,Wunderground v.1.15,2013-06-26 22:15:00,
2013-06-26 18:20:00,73.7,69.6,29.99,North,10,0.0,5.0,87,0.00,,,0.07,Wunderground v.1.15,2013-06-26 22:20:00,
2013-06-26 18:25:00,73.9,69.8,29.99,North,10,0.0,5.0,87,0.00,,,0.07,Wunderground v.1.15,2013-06-26 22:25:00,
2013-06-26 18:30:00,74.2,69.4,29.99,North,10,0.0,5.0,85,0.00,,,0.07,Wunderground v.1.15,2013-06-26 22:30:00,
2013-06-26 18:40:00,74.6,70.1,29.99,North,10,0.0,5.0,86,0.00,,,0.07,Wunderground v.1.15,2013-06-26 22:40:00,
2013-06-26 18:45:00,74.7,70.2,29.99,North,11,0.0,5.0,86,0.00,,,0.07,Wunderground v.1.15,2013-06-26 22:45:00,
2013-06-26 18:50:00,74.6,70.5,29.99,North,11,0.0,5.0,87,0.00,,,0.07,Wunderground v.1.15,2013-06-26 22:50:00,
2013-06-26 18:55:00,74.6,70.5,29.99,North,11,0.0,5.0,87,0.00,,,0.07,Wunderground v.1.15,2013-06-26 22:55:00,
2013-06-26 19:01:00,74.5,70.0,29.99,ENE,57,0.0,5.0,86,0.00,,,0.07,Wunderground v.1.15,2013-06-26 23:01:00,
2013-06-26 19:05:00,74.6,70.5,29.99,ENE,57,0.0,5.0,87,0.00,,,0.07,Wunderground v.1.15,2013-06-26 23:05:00,
2013-06-26 19:10:00,74.5,70.4,30.00,ENE,57,0.0,5.0,87,0.00,,,0.07,Wunderground v.1.15,2013-06-26 23:10:00,
2013-06-26 19:15:00,74.6,70.5,29.99,ENE,57,0.0,5.0,87,0.00,,,0.07,Wunderground v.1.15,2013-06-26 23:15:00,
2013-06-26 19:20:00,74.7,70.6,29.99,ENE,57,0.0,5.0,87,0.00,,,0.07,Wunderground v.1.15,2013-06-26 23:20:00,
2013-06-26 19:25:00,74.7,70.9,29.99,ENE,57,0.0,5.0,88,0.00,,,0.07,Wunderground v.1.15,2013-06-26 23:25:00,
2013-06-26 19:30:00,74.5,69.3,29.99,ENE,57,0.0,5.0,84,0.00,,,0.07,Wunderground v.1.15,2013-06-26 23:30:00,
2013-06-26 19:35:00,74.5,70.0,29.99,ENE,57,0.0,5.0,86,0.00,,,0.07,Wunderground v.1.15,2013-06-26 23:35:00,
2013-06-26 19:40:00,74.4,70.3,29.99,ENE,57,0.0,5.0,87,0.00,,,0.07,Wunderground v.1.15,2013-06-26 23:40:00,
2013-06-26 19:45:00,74.2,70.4,29.98,East,92,0.0,5.0,88,0.00,,,0.07,Wunderground v.1.15,2013-06-26 23:45:00,
2013-06-26 19:50:00,73.9,70.1,29.99,East,92,0.0,5.0,88,0.00,,,0.07,Wunderground v.1.15,2013-06-26 23:50:00,
2013-06-26 19:55:00,73.7,69.9,29.99,East,92,0.0,5.0,88,0.00,,,0.07,Wunderground v.1.15,2013-06-26 23:55:00,
2013-06-26 20:01:00,73.4,69.6,29.99,East,92,0.0,5.0,88,0.00,,,0.07,Wunderground v.1.15,2013-06-27 00:01:00,
2013-06-26 20:05:00,73.2,69.4,29.99,East,92,0.0,5.0,88,0.00,,,0.07,Wunderground v.1.15,2013-06-27 00:05:00,
2013-06-26 20:10:00,73.0,69.2,29.98,SE,136,0.0,5.0,88,0.00,,,0.07,Wunderground v.1.15,2013-06-27 00:10:00,
2013-06-26 20:15:00,72.7,68.9,29.98,SE,136,0.0,5.0,88,0.00,,,0.07,Wunderground v.1.15,2013-06-27 00:15:00,
2013-06-26 20:20:00,72.5,68.7,29.98,SE,136,0.0,5.0,88,0.00,,,0.07,Wunderground v.1.15,2013-06-27 00:20:00,
2013-06-26 20:25:00,72.3,68.5,29.99,SE,136,0.0,5.0,88,0.00,,,0.07,Wunderground v.1.15,2013-06-27 00:25:00,
2013-06-26 20:30:00,72.1,68.7,29.98,SE,136,0.0,5.0,89,0.00,,,0.07,Wunderground v.1.15,2013-06-27 00:30:00,
2013-06-26 20:40:00,71.6,67.9,29.98,SE,136,0.0,5.0,88,0.00,,,0.07,Wunderground v.1.15,2013-06-27 00:40:00,
2013-06-26 20:45:00,71.3,67.6,29.98,SE,136,0.0,5.0,88,0.00,,,0.07,Wunderground v.1.15,2013-06-27 00:45:00,
2013-06-26 20:55:00,71.0,67.9,29.99,SE,136,0.0,5.0,90,0.00,,,0.07,Wunderground v.1.15,2013-06-27 00:55:00,
2013-06-26 21:01:00,70.7,67.6,29.98,SE,136,0.0,5.0,90,0.00,,,0.07,Wunderground v.1.15,2013-06-27 01:01:00,
2013-06-26 21:05:00,70.5,67.4,29.98,SE,136,0.0,5.0,90,0.00,,,0.07,Wunderground v.1.15,2013-06-27 01:05:00,
2013-06-26 21:10:00,70.3,67.2,29.98,SE,136,0.0,5.0,90,0.00,,,0.07,Wunderground v.1.15,2013-06-27 01:10:00,
2013-06-26 21:15:00,70.2,67.1,29.99,SE,136,0.0,5.0,90,0.00,,,0.07,Wunderground v.1.15,2013-06-27 01:15:00,
2013-06-26 21:20:00,70.1,67.3,29.99,SE,136,0.0,5.0,91,0.00,,,0.07,Wunderground v.1.15,2013-06-27 01:20:00,
2013-06-26 21:25:00,70.2,67.4,29.99,SE,136,0.0,5.0,91,0.00,,,0.07,Wunderground v.1.15,2013-06-27 01:25:00,
2013-06-26 21:30:00,70.2,67.8,29.99,SE,136,0.0,5.0,92,0.00,,,0.07,Wunderground v.1.15,2013-06-27 01:30:00,
2013-06-26 21:40:00,70.3,67.9,29.99,SE,136,0.0,5.0,92,0.00,,,0.07,Wunderground v.1.15,2013-06-27 01:40:00,
2013-06-26 21:45:00,70.3,67.9,29.99,SE,136,0.0,5.0,92,0.00,,,0.07,Wunderground v.1.15,2013-06-27 01:45:00,
2013-06-26 21:50:00,70.3,67.5,30.00,SE,136,0.0,5.0,91,0.00,,,0.07,Wunderground v.1.15,2013-06-27 01:50:00,
2013-06-26 21:55:00,70.2,67.4,29.99,SE,136,0.0,5.0,91,0.00,,,0.07,Wunderground v.1.15,2013-06-27 01:55:00,
2013-06-26 22:01:00,70.2,67.4,29.99,SE,136,0.0,5.0,91,0.00,,,0.07,Wunderground v.1.15,2013-06-27 02:01:00,
2013-06-26 22:05:00,70.3,67.5,29.99,SE,136,0.0,5.0,91,0.00,,,0.07,Wunderground v.1.15,2013-06-27 02:05:00,
2013-06-26 22:10:00,70.4,67.6,29.99,SE,136,0.0,5.0,91,0.00,,,0.07,Wunderground v.1.15,2013-06-27 02:10:00,
2013-06-26 22:15:00,70.5,67.7,29.99,SE,136,0.0,5.0,91,0.00,,,0.07,Wunderground v.1.15,2013-06-27 02:15:00,
2013-06-26 22:20:00,70.6,67.8,29.99,SE,136,0.0,5.0,91,0.00,,,0.07,Wunderground v.1.15,2013-06-27 02:20:00,
2013-06-26 22:25:00,70.6,67.8,29.99,SE,136,0.0,5.0,91,0.00,,,0.07,Wunderground v.1.15,2013-06-27 02:25:00,
2013-06-26 22:30:00,70.7,67.9,30.00,SE,136,0.0,5.0,91,0.00,,,0.07,Wunderground v.1.15,2013-06-27 02:30:00,
2013-06-26 22:35:00,70.8,68.0,29.99,SE,136,0.0,5.0,91,0.00,,,0.07,Wunderground v.1.15,2013-06-27 02:35:00,
2013-06-26 22:40:00,70.8,68.0,29.99,SE,136,0.0,5.0,91,0.00,,,0.07,Wunderground v.1.15,2013-06-27 02:40:00,
2013-06-26 22:45:00,70.8,68.0,29.99,SE,136,0.0,5.0,91,0.00,,,0.07,Wunderground v.1.15,2013-06-27 02:45:00,
2013-06-26 22:50:00,70.8,68.0,29.99,SE,136,0.0,5.0,91,0.00,,,0.07,Wunderground v.1.15,2013-06-27 02:50:00,
2013-06-26 22:55:00,70.7,67.6,29.99,SE,136,0.0,5.0,90,0.00,,,0.07,Wunderground v.1.15,2013-06-27 02:55:00,
2013-06-26 23:01:00,70.6,67.8,29.99,SE,136,0.0,5.0,91,0.00,,,0.07,Wunderground v.1.15,2013-06-27 03:01:00,
2013-06-26 23:05:00,70.5,67.7,29.99,SE,136,0.0,5.0,91,0.00,,,0.07,Wunderground v.1.15,2013-06-27 03:05:00,
2013-06-26 23:10:00,70.4,67.6,29.99,SE,136,0.0,5.0,91,0.00,,,0.07,Wunderground v.1.15,2013-06-27 03:10:00,
2013-06-26 23:15:00,70.3,67.5,29.99,SE,136,0.0,5.0,91,0.00,,,0.07,Wunderground v.1.15,2013-06-27 03:15:00,
2013-06-26 23:20:00,70.2,67.4,30.00,SE,136,0.0,5.0,91,0.00,,,0.07,Wunderground v.1.15,2013-06-27 03:20:00,
2013-06-26 23:25:00,70.1,67.3,30.00,SE,136,0.0,5.0,91,0.00,,,0.07,Wunderground v.1.15,2013-06-27 03:25:00,
2013-06-26 23:30:00,70.0,67.6,30.00,SE,136,0.0,5.0,92,0.00,,,0.07,Wunderground v.1.15,2013-06-27 03:30:00,
2013-06-26 23:35:00,69.9,67.5,30.00,SE,136,0.0,5.0,92,0.00,,,0.07,Wunderground v.1.15,2013-06-27 03:35:00,
2013-06-26 23:40:00,69.8,67.4,30.00,SE,136,0.0,5.0,92,0.00,,,0.07,Wunderground v.1.15,2013-06-27 03:40:00,
2013-06-26 23:45:00,69.7,67.0,30.00,SE,136,0.0,5.0,91,0.00,,,0.07,Wunderground v.1.15,2013-06-27 03:45:00,
2013-06-26 23:50:00,69.6,66.9,30.00,SE,136,0.0,5.0,91,0.00,,,0.07,Wunderground v.1.15,2013-06-27 03:50:00,
2013-06-26 23:55:00,69.5,67.1,30.00,SE,136,0.0,5.0,92,0.00,,,0.07,Wunderground v.1.15,2013-06-27 03:55:00,